Daisinmaru No.11 — JK5352 — position and weather

sailwx.info

Track history (hours):
 
Tides and Currents Weather Stations Pressure Air Temp Water Temp Dewpoint Dewpoint Depression Visibility Wind Speed Wind Dir Waves Ship Positions

Daisinmaru No.11

Last reported at 2017-Dec-16 01:45 UTC. Time now 2017-Dec-16 05:20 UTC.
Position N 35°35' E 139°46'.

Length 52 m.

MMSI: 431000667.

Date/timePositionNaut miles runAvg speedWind from/ knotsBaromVisibWave heightAir tempDewpointWater temp
2017-Dec-16 01:45N 35°35' E 139°46'1 3.7
2017-Dec-16 01:30N 35°34' E 139°47'0 0.3
2017-Dec-16 01:00N 35°35' E 139°48'3 6.5
2017-Dec-16 00:30N 35°33' E 139°51'510.1
2017-Dec-16 00:00N 35°30' E 139°56'4 7.7
2017-Dec-15 23:30N 35°27' E 139°59'  
2017-Dec-08 07:58N 35°27' E 139°60'0 0.0
2017-Dec-08 07:30N 35°27' E 139°60'0 0.0
2017-Dec-08 07:00N 35°27' E 139°60'0 0.6
2017-Dec-08 06:29N 35°28' E 139°60'12 8.7
2017-Dec-08 05:10N 35°34' E 139°48'1 0.9
2017-Dec-08 03:47N 35°35' E 139°46'0 0.0
2017-Dec-08 03:29N 35°35' E 139°46'0 0.0
2017-Dec-08 01:53N 35°35' E 139°46'0 0.0
2017-Dec-08 01:29N 35°35' E 139°46'0 0.0
2017-Dec-08 00:41N 35°35' E 139°46'0 0.0
2017-Dec-08 00:29N 35°35' E 139°46'0 0.0
2017-Dec-07 23:57N 35°35' E 139°46'  
Track history (hours):
 
Tides and Currents Weather Stations Pressure Air Temp Water Temp Dewpoint Dewpoint Depression Visibility Wind Speed Wind Dir Waves Ship Positions

Daisinmaru No.11

Last reported at 2017-Dec-16 01:45 UTC. Time now 2017-Dec-16 05:20 UTC.
Position N 35°35' E 139°46'.

Length 52 m.

MMSI: 431000667.

Date/timePositionNaut miles runAvg speedWind from/ knotsBaromVisibWave heightAir tempDewpointWater temp
2017-Dec-16 01:45N 35°35' E 139°46'1 3.7
2017-Dec-16 01:30N 35°34' E 139°47'0 0.3
2017-Dec-16 01:00N 35°35' E 139°48'3 6.5
2017-Dec-16 00:30N 35°33' E 139°51'510.1
2017-Dec-16 00:00N 35°30' E 139°56'4 7.7
2017-Dec-15 23:30N 35°27' E 139°59'  
2017-Dec-08 07:58N 35°27' E 139°60'0 0.0
2017-Dec-08 07:30N 35°27' E 139°60'0 0.0
2017-Dec-08 07:00N 35°27' E 139°60'0 0.6
2017-Dec-08 06:29N 35°28' E 139°60'12 8.7
2017-Dec-08 05:10N 35°34' E 139°48'1 0.9
2017-Dec-08 03:47N 35°35' E 139°46'0 0.0
2017-Dec-08 03:29N 35°35' E 139°46'0 0.0
2017-Dec-08 01:53N 35°35' E 139°46'0 0.0
2017-Dec-08 01:29N 35°35' E 139°46'0 0.0
2017-Dec-08 00:41N 35°35' E 139°46'0 0.0
2017-Dec-08 00:29N 35°35' E 139°46'0 0.0
2017-Dec-07 23:57N 35°35' E 139°46'  

Dump ship's entire track history